PWSweather.com
Personal Weather Stations
Station Observations
SHAHALMS1
Eftra, Falkenberg, HA

EftraFalkenberg, HA

Lat: 56.85, Lon: 12.65

Elevation: 140

Station Type:

http://hem.passagen.se/risarp101

High Low Average
Temperature 78.1°F25.6°C 47.7°F8.7°C 62.7°F17.1°C
Dew Point 54.0°F12.2°C 42.8°F6.0°C 48.1°F8.9°C
Winds 9.5 mph 15.3 kmh Calm Calm 6.0 mph ESE9.7 kmh ESE
Wind Gusts 19.0 mph30.6 kmh -- 11.0 mph17.7 kmh
Humidity 85% 32% 62%
Pressure 29.98 in1015.2 mb 29.80 in1009.1 mb -
Precipitation 0.00 in0.0 mm - -
Hour Temp Dew Point Humidity Winds Wind Gusts Pressure Precip Precip Rate Daily Precip Total
12:00 AM 50.5°F10.3°C 44.3°F6.8°C 79% 6.1 mph E9.8 kmh E 10.4 mph16.7 kmh 29.95 in1014.2 mb 0.00 in0.0 mm 0.00 in0.0 mm 0.00 in0.0 mm
12:15 AM 50.5°F10.3°C 44.6°F7.0°C 80% 7.6 mph E12.2 kmh E 11.5 mph18.5 kmh 29.95 in1014.2 mb 0.00 in0.0 mm 0.00 in0.0 mm 0.00 in0.0 mm
12:30 AM 50.5°F10.3°C 44.6°F7.0°C 80% 6.4 mph E10.3 kmh E 11.1 mph17.9 kmh 29.95 in1014.2 mb 0.00 in0.0 mm 0.00 in0.0 mm 0.00 in0.0 mm
12:45 AM 50.2°F10.1°C 44.2°F6.8°C 80% 6.7 mph E10.8 kmh E 10.0 mph16.1 kmh 29.95 in1014.2 mb 0.00 in0.0 mm 0.00 in0.0 mm 0.00 in0.0 mm
01:00 AM 50.0°F10.0°C 44.4°F6.9°C 81% 8.2 mph E13.2 kmh E 12.2 mph19.6 kmh 29.95 in1014.2 mb 0.00 in0.0 mm 0.00 in0.0 mm 0.00 in0.0 mm
01:15 AM 50.0°F10.0°C 44.4°F6.9°C 81% 8.0 mph E12.9 kmh E 10.7 mph17.2 kmh 29.95 in1014.2 mb 0.00 in0.0 mm 0.00 in0.0 mm 0.00 in0.0 mm
01:30 AM 49.8°F9.9°C 44.5°F6.9°C 82% 7.8 mph E12.6 kmh E 12.9 mph20.8 kmh 29.95 in1014.2 mb 0.00 in0.0 mm 0.00 in0.0 mm 0.00 in0.0 mm
01:45 AM 49.8°F9.9°C 44.5°F6.9°C 82% 7.9 mph E12.7 kmh E 11.8 mph19.0 kmh 29.95 in1014.2 mb 0.00 in0.0 mm 0.00 in0.0 mm 0.00 in0.0 mm
02:00 AM 49.6°F9.8°C 44.4°F6.9°C 82% 7.2 mph E11.6 kmh E 10.4 mph16.7 kmh 29.92 in1013.2 mb 0.00 in0.0 mm 0.00 in0.0 mm 0.00 in0.0 mm
02:15 AM 49.5°F9.7°C 44.5°F6.9°C 83% 7.3 mph E11.7 kmh E 11.8 mph19.0 kmh 29.95 in1014.2 mb 0.00 in0.0 mm 0.00 in0.0 mm 0.00 in0.0 mm
02:30 AM 49.5°F9.7°C 44.5°F6.9°C 83% 8.1 mph E13.0 kmh E 12.9 mph20.8 kmh 29.95 in1014.2 mb 0.00 in0.0 mm 0.00 in0.0 mm 0.00 in0.0 mm
02:45 AM 49.1°F9.5°C 44.2°F6.8°C 83% 7.4 mph E11.9 kmh E 11.5 mph18.5 kmh 29.98 in1015.2 mb 0.00 in0.0 mm 0.00 in0.0 mm 0.00 in0.0 mm
03:01 AM 48.9°F9.4°C 44.0°F6.7°C 83% 7.4 mph E11.9 kmh E 11.5 mph18.5 kmh 29.95 in1014.2 mb 0.00 in0.0 mm 0.00 in0.0 mm 0.00 in0.0 mm
03:15 AM 48.7°F9.3°C 43.8°F6.6°C 83% 7.3 mph E11.7 kmh E 11.5 mph18.5 kmh 29.95 in1014.2 mb 0.00 in0.0 mm 0.00 in0.0 mm 0.00 in0.0 mm
03:30 AM 48.6°F9.2°C 43.6°F6.4°C 83% 6.4 mph E10.3 kmh E 11.5 mph18.5 kmh 29.95 in1014.2 mb 0.00 in0.0 mm 0.00 in0.0 mm 0.00 in0.0 mm
03:45 AM 48.4°F9.1°C 43.8°F6.6°C 84% 7.1 mph E11.4 kmh E 10.4 mph16.7 kmh 29.95 in1014.2 mb 0.00 in0.0 mm 0.00 in0.0 mm 0.00 in0.0 mm
04:00 AM 48.2°F9.0°C 43.6°F6.4°C 84% 6.3 mph E10.1 kmh E 10.0 mph16.1 kmh 29.92 in1013.2 mb 0.00 in0.0 mm 0.00 in0.0 mm 0.00 in0.0 mm
04:15 AM 47.7°F8.7°C 42.8°F6.0°C 83% 6.3 mph E10.1 kmh E 10.0 mph16.1 kmh 29.95 in1014.2 mb 0.00 in0.0 mm 0.00 in0.0 mm 0.00 in0.0 mm
04:30 AM 47.8°F8.8°C 43.2°F6.2°C 84% 5.8 mph E9.3 kmh E 10.4 mph16.7 kmh 29.92 in1013.2 mb 0.00 in0.0 mm 0.00 in0.0 mm 0.00 in0.0 mm
04:45 AM 48.2°F9.0°C 43.9°F6.6°C 85% 8.9 mph E14.3 kmh E 15.0 mph24.1 kmh 29.92 in1013.2 mb 0.00 in0.0 mm 0.00 in0.0 mm 0.00 in0.0 mm
05:00 AM 48.4°F9.1°C 44.1°F6.7°C 85% 7.3 mph E11.7 kmh E 11.8 mph19.0 kmh 29.92 in1013.2 mb 0.00 in0.0 mm 0.00 in0.0 mm 0.00 in0.0 mm
05:15 AM 48.9°F9.4°C 44.6°F7.0°C 85% 6.5 mph E10.5 kmh E 11.5 mph18.5 kmh 29.92 in1013.2 mb 0.00 in0.0 mm 0.00 in0.0 mm 0.00 in0.0 mm
05:30 AM 49.6°F9.8°C 45.3°F7.4°C 85% 8.0 mph E12.9 kmh E 13.6 mph21.9 kmh 29.92 in1013.2 mb 0.00 in0.0 mm 0.00 in0.0 mm 0.00 in0.0 mm
05:45 AM 50.2°F10.1°C 45.8°F7.7°C 85% 7.9 mph E12.7 kmh E 12.2 mph19.6 kmh 29.92 in1013.2 mb 0.00 in0.0 mm 0.00 in0.0 mm 0.00 in0.0 mm
06:00 AM 50.7°F10.4°C 46.1°F7.8°C 84% 6.1 mph E9.8 kmh E 11.1 mph17.9 kmh 29.92 in1013.2 mb 0.00 in0.0 mm 0.00 in0.0 mm 0.00 in0.0 mm
06:15 AM 51.3°F10.7°C 46.6°F8.1°C 84% 6.7 mph E10.8 kmh E 11.8 mph19.0 kmh 29.92 in1013.2 mb 0.00 in0.0 mm 0.00 in0.0 mm 0.00 in0.0 mm
06:30 AM 51.8°F11.0°C 47.1°F8.4°C 84% 7.3 mph E11.7 kmh E 12.2 mph19.6 kmh 29.89 in1012.2 mb 0.00 in0.0 mm 0.00 in0.0 mm 0.00 in0.0 mm
06:45 AM 53.1°F11.7°C 48.0°F8.9°C 83% 7.3 mph E11.7 kmh E 12.9 mph20.8 kmh 29.89 in1012.2 mb 0.00 in0.0 mm 0.00 in0.0 mm 0.00 in0.0 mm
07:00 AM 54.3°F12.4°C 49.3°F9.6°C 83% 8.0 mph E12.9 kmh E 14.0 mph22.5 kmh 29.89 in1012.2 mb 0.00 in0.0 mm 0.00 in0.0 mm 0.00 in0.0 mm
07:15 AM 55.4°F13.0°C 49.7°F9.8°C 81% 9.2 mph E14.8 kmh E 16.5 mph26.6 kmh 29.89 in1012.2 mb 0.00 in0.0 mm 0.00 in0.0 mm 0.00 in0.0 mm
07:30 AM 56.7°F13.7°C 50.6°F10.3°C 80% 9.4 mph E15.1 kmh E 17.2 mph27.7 kmh 29.89 in1012.2 mb 0.00 in0.0 mm 0.00 in0.0 mm 0.00 in0.0 mm
07:45 AM 57.9°F14.4°C 51.1°F10.6°C 78% 9.2 mph E14.8 kmh E 17.2 mph27.7 kmh 29.89 in1012.2 mb 0.00 in0.0 mm 0.00 in0.0 mm 0.00 in0.0 mm
08:00 AM 59.2°F15.1°C 51.6°F10.9°C 76% 7.0 mph E11.3 kmh E 14.0 mph22.5 kmh 29.89 in1012.2 mb 0.00 in0.0 mm 0.00 in0.0 mm 0.00 in0.0 mm
08:15 AM 60.1°F15.6°C 51.4°F10.8°C 73% 7.1 mph E11.4 kmh E 15.4 mph24.8 kmh 29.89 in1012.2 mb 0.00 in0.0 mm 0.00 in0.0 mm 0.00 in0.0 mm
08:30 AM 60.8°F16.0°C 51.7°F10.9°C 72% 8.6 mph E13.8 kmh E 16.5 mph26.6 kmh 29.89 in1012.2 mb 0.00 in0.0 mm 0.00 in0.0 mm 0.00 in0.0 mm
08:45 AM 61.7°F16.5°C 52.2°F11.2°C 71% 7.8 mph E12.6 kmh E 14.0 mph22.5 kmh 29.89 in1012.2 mb 0.00 in0.0 mm 0.00 in0.0 mm 0.00 in0.0 mm
09:00 AM 63.0°F17.2°C 52.6°F11.4°C 69% 7.4 mph E11.9 kmh E 14.0 mph22.5 kmh 29.89 in1012.2 mb 0.00 in0.0 mm 0.00 in0.0 mm 0.00 in0.0 mm
09:15 AM 64.4°F18.0°C 53.2°F11.8°C 67% 7.5 mph E12.1 kmh E 15.4 mph24.8 kmh 29.89 in1012.2 mb 0.00 in0.0 mm 0.00 in0.0 mm 0.00 in0.0 mm
09:30 AM 65.3°F18.5°C 53.2°F11.8°C 65% 7.3 mph ENE11.7 kmh ENE 15.4 mph24.8 kmh 29.89 in1012.2 mb 0.00 in0.0 mm 0.00 in0.0 mm 0.00 in0.0 mm
09:45 AM 66.4°F19.1°C 53.4°F11.9°C 63% 6.4 mph ENE10.3 kmh ENE 15.7 mph25.3 kmh 29.89 in1012.2 mb 0.00 in0.0 mm 0.00 in0.0 mm 0.00 in0.0 mm
10:00 AM 67.5°F19.7°C 54.0°F12.2°C 62% 9.2 mph E14.8 kmh E 15.7 mph25.3 kmh 29.89 in1012.2 mb 0.00 in0.0 mm 0.00 in0.0 mm 0.00 in0.0 mm
10:15 AM 68.0°F20.0°C 53.1°F11.7°C 59% 7.6 mph E12.2 kmh E 13.6 mph21.9 kmh 29.89 in1012.2 mb 0.00 in0.0 mm 0.00 in0.0 mm 0.00 in0.0 mm
10:30 AM 68.5°F20.3°C 53.6°F12.0°C 59% 7.9 mph E12.7 kmh E 15.4 mph24.8 kmh 29.86 in1011.2 mb 0.00 in0.0 mm 0.00 in0.0 mm 0.00 in0.0 mm
10:45 AM 69.4°F20.8°C 53.5°F11.9°C 57% 9.3 mph E15.0 kmh E 16.1 mph25.9 kmh 29.86 in1011.2 mb 0.00 in0.0 mm 0.00 in0.0 mm 0.00 in0.0 mm
11:00 AM 70.7°F21.5°C 53.2°F11.8°C 54% 8.7 mph E14.0 kmh E 16.1 mph25.9 kmh 29.86 in1011.2 mb 0.00 in0.0 mm 0.00 in0.0 mm 0.00 in0.0 mm
11:15 AM 71.6°F22.0°C 53.0°F11.7°C 52% 9.0 mph E14.5 kmh E 16.5 mph26.6 kmh 29.86 in1011.2 mb 0.00 in0.0 mm 0.00 in0.0 mm 0.00 in0.0 mm
11:30 AM 72.3°F22.4°C 52.6°F11.4°C 50% 9.5 mph E15.3 kmh E 17.2 mph27.7 kmh 29.86 in1011.2 mb 0.00 in0.0 mm 0.00 in0.0 mm 0.00 in0.0 mm
11:45 AM 73.2°F22.9°C 52.9°F11.6°C 49% 7.9 mph E12.7 kmh E 16.1 mph25.9 kmh 29.83 in1010.2 mb 0.00 in0.0 mm 0.00 in0.0 mm 0.00 in0.0 mm
12:00 PM 73.8°F23.2°C 52.3°F11.3°C 47% 8.2 mph E13.2 kmh E 15.4 mph24.8 kmh 29.86 in1011.2 mb 0.00 in0.0 mm 0.00 in0.0 mm 0.00 in0.0 mm
12:15 PM 74.1°F23.4°C 52.0°F11.1°C 46% 8.1 mph ESE13.0 kmh ESE 14.0 mph22.5 kmh 29.83 in1010.2 mb 0.00 in0.0 mm 0.00 in0.0 mm 0.00 in0.0 mm
12:30 PM 74.7°F23.7°C 51.3°F10.7°C 44% 8.5 mph ESE13.7 kmh ESE 15.7 mph25.3 kmh 29.83 in1010.2 mb 0.00 in0.0 mm 0.00 in0.0 mm 0.00 in0.0 mm
12:45 PM 74.8°F23.8°C 51.5°F10.8°C 44% 5.2 mph E8.4 kmh E 15.4 mph24.8 kmh 29.83 in1010.2 mb 0.00 in0.0 mm 0.00 in0.0 mm 0.00 in0.0 mm
01:00 PM 75.4°F24.1°C 51.3°F10.7°C 43% 6.0 mph SE9.7 kmh SE 12.5 mph20.1 kmh 29.83 in1010.2 mb 0.00 in0.0 mm 0.00 in0.0 mm 0.00 in0.0 mm
01:15 PM 75.9°F24.4°C 50.5°F10.3°C 41% 9.3 mph SE15.0 kmh SE 19.0 mph30.6 kmh 29.83 in1010.2 mb 0.00 in0.0 mm 0.00 in0.0 mm 0.00 in0.0 mm
01:30 PM 76.3°F24.6°C 49.5°F9.7°C 39% 6.2 mph SE10.0 kmh SE 12.9 mph20.8 kmh 29.80 in1009.1 mb 0.00 in0.0 mm 0.00 in0.0 mm 0.00 in0.0 mm
01:45 PM 77.0°F25.0°C 48.7°F9.3°C 37% 4.9 mph ESE7.9 kmh ESE 10.4 mph16.7 kmh 29.83 in1010.2 mb 0.00 in0.0 mm 0.00 in0.0 mm 0.00 in0.0 mm
02:00 PM 77.2°F25.1°C 49.6°F9.8°C 38% 4.8 mph W7.7 kmh W 11.8 mph19.0 kmh 29.83 in1010.2 mb 0.00 in0.0 mm 0.00 in0.0 mm 0.00 in0.0 mm
02:15 PM 77.0°F25.0°C 48.7°F9.3°C 37% 3.9 mph W6.3 kmh W 11.8 mph19.0 kmh 29.83 in1010.2 mb 0.00 in0.0 mm 0.00 in0.0 mm 0.00 in0.0 mm
02:30 PM 77.4°F25.2°C 48.3°F9.1°C 36% 4.0 mph W6.4 kmh W 9.3 mph15.0 kmh 29.83 in1010.2 mb 0.00 in0.0 mm 0.00 in0.0 mm 0.00 in0.0 mm
02:45 PM 77.5°F25.3°C 47.7°F8.7°C 35% 3.7 mph W6.0 kmh W 9.7 mph15.6 kmh 29.83 in1010.2 mb 0.00 in0.0 mm 0.00 in0.0 mm 0.00 in0.0 mm
03:00 PM 77.5°F25.3°C 46.2°F7.9°C 33% 3.4 mph W5.5 kmh W 8.6 mph13.8 kmh 29.83 in1010.2 mb 0.00 in0.0 mm 0.00 in0.0 mm 0.00 in0.0 mm
03:15 PM 77.5°F25.3°C 46.2°F7.9°C 33% 3.3 mph W5.3 kmh W 7.9 mph12.7 kmh 29.83 in1010.2 mb 0.00 in0.0 mm 0.00 in0.0 mm 0.00 in0.0 mm
03:30 PM 77.9°F25.5°C 45.7°F7.6°C 32% 3.8 mph W6.1 kmh W 8.6 mph13.8 kmh 29.83 in1010.2 mb 0.00 in0.0 mm 0.00 in0.0 mm 0.00 in0.0 mm
03:45 PM 78.1°F25.6°C 46.6°F8.1°C 33% 2.7 mph W4.3 kmh W 6.4 mph10.3 kmh 29.83 in1010.2 mb 0.00 in0.0 mm 0.00 in0.0 mm 0.00 in0.0 mm
04:00 PM 77.9°F25.5°C 45.7°F7.6°C 32% 4.6 mph W7.4 kmh W 10.7 mph17.2 kmh 29.83 in1010.2 mb 0.00 in0.0 mm 0.00 in0.0 mm 0.00 in0.0 mm
04:15 PM 77.4°F25.2°C 45.2°F7.3°C 32% 3.9 mph NW6.3 kmh NW 14.0 mph22.5 kmh 29.83 in1010.2 mb 0.00 in0.0 mm 0.00 in0.0 mm 0.00 in0.0 mm
04:30 PM 76.3°F24.6°C 44.2°F6.8°C 32% 7.9 mph NW12.7 kmh NW 15.4 mph24.8 kmh 29.83 in1010.2 mb 0.00 in0.0 mm 0.00 in0.0 mm 0.00 in0.0 mm
04:45 PM 75.6°F24.2°C 43.6°F6.4°C 32% 7.5 mph NNW12.1 kmh NNW 12.5 mph20.1 kmh 29.83 in1010.2 mb 0.00 in0.0 mm 0.00 in0.0 mm 0.00 in0.0 mm
05:00 PM 74.7°F23.7°C 44.4°F6.9°C 34% 7.4 mph NW11.9 kmh NW 10.4 mph16.7 kmh 29.83 in1010.2 mb 0.00 in0.0 mm 0.00 in0.0 mm 0.00 in0.0 mm
05:15 PM 74.7°F23.7°C 45.9°F7.7°C 36% 3.3 mph N5.3 kmh N 8.6 mph13.8 kmh 29.83 in1010.2 mb 0.00 in0.0 mm 0.00 in0.0 mm 0.00 in0.0 mm
05:30 PM 74.8°F23.8°C 46.1°F7.8°C 36% 3.1 mph NE5.0 kmh NE 12.9 mph20.8 kmh 29.80 in1009.1 mb 0.00 in0.0 mm 0.00 in0.0 mm 0.00 in0.0 mm
05:45 PM 73.4°F23.0°C 45.5°F7.5°C 37% 7.0 mph E11.3 kmh E 15.4 mph24.8 kmh 29.83 in1010.2 mb 0.00 in0.0 mm 0.00 in0.0 mm 0.00 in0.0 mm
06:00 PM 71.8°F22.1°C 46.2°F7.9°C 40% 3.9 mph ENE6.3 kmh ENE 9.3 mph15.0 kmh 29.83 in1010.2 mb 0.00 in0.0 mm 0.00 in0.0 mm 0.00 in0.0 mm
06:15 PM 70.7°F21.5°C 47.1°F8.4°C 43% 3.3 mph E5.3 kmh E 10.0 mph16.1 kmh 29.83 in1010.2 mb 0.00 in0.0 mm 0.00 in0.0 mm 0.00 in0.0 mm
06:30 PM 69.1°F20.6°C 47.4°F8.6°C 46% 3.6 mph SE5.8 kmh SE 10.0 mph16.1 kmh 29.83 in1010.2 mb 0.00 in0.0 mm 0.00 in0.0 mm 0.00 in0.0 mm
06:45 PM 67.6°F19.8°C 47.2°F8.4°C 48% 3.6 mph ESE5.8 kmh ESE 9.3 mph15.0 kmh 29.83 in1010.2 mb 0.00 in0.0 mm 0.00 in0.0 mm 0.00 in0.0 mm
07:01 PM 66.6°F19.2°C 47.3°F8.5°C 50% 3.0 mph ESE4.8 kmh ESE 10.7 mph17.2 kmh 29.83 in1010.2 mb 0.00 in0.0 mm 0.00 in0.0 mm 0.00 in0.0 mm
07:15 PM 65.7°F18.7°C 47.5°F8.6°C 52% 2.8 mph E4.5 kmh E 8.9 mph14.3 kmh 29.83 in1010.2 mb 0.00 in0.0 mm 0.00 in0.0 mm 0.00 in0.0 mm
07:30 PM 64.0°F17.8°C 48.0°F8.9°C 56% 9.3 mph ESE15.0 kmh ESE 14.0 mph22.5 kmh 29.83 in1010.2 mb 0.00 in0.0 mm 0.00 in0.0 mm 0.00 in0.0 mm
07:45 PM 62.8°F17.1°C 48.2°F9.0°C 59% 5.9 mph E9.5 kmh E 9.7 mph15.6 kmh 29.86 in1011.2 mb 0.00 in0.0 mm 0.00 in0.0 mm 0.00 in0.0 mm
08:00 PM 62.1°F16.7°C 48.9°F9.4°C 62% 5.0 mph E8.0 kmh E 9.7 mph15.6 kmh 29.83 in1010.2 mb 0.00 in0.0 mm 0.00 in0.0 mm 0.00 in0.0 mm
08:15 PM 61.3°F16.3°C 49.1°F9.5°C 64% 3.5 mph E5.6 kmh E 8.9 mph14.3 kmh 29.83 in1010.2 mb 0.00 in0.0 mm 0.00 in0.0 mm 0.00 in0.0 mm
08:30 PM 61.2°F16.2°C 49.3°F9.6°C 65% 3.1 mph E5.0 kmh E 9.3 mph15.0 kmh 29.83 in1010.2 mb 0.00 in0.0 mm 0.00 in0.0 mm 0.00 in0.0 mm
08:45 PM 61.2°F16.2°C 49.7°F9.8°C 66% 4.5 mph E7.2 kmh E 10.0 mph16.1 kmh 29.83 in1010.2 mb 0.00 in0.0 mm 0.00 in0.0 mm 0.00 in0.0 mm
09:00 PM 61.0°F16.1°C 49.5°F9.7°C 66% 2.1 mph E3.4 kmh E 8.6 mph13.8 kmh 29.80 in1009.1 mb 0.00 in0.0 mm 0.00 in0.0 mm 0.00 in0.0 mm
09:15 PM 60.8°F16.0°C 49.8°F9.9°C 67% 0.2 mph E0.3 kmh E 3.9 mph6.3 kmh 29.83 in1010.2 mb 0.00 in0.0 mm 0.00 in0.0 mm 0.00 in0.0 mm
09:30 PM 60.8°F16.0°C 50.2°F10.1°C 68% 0.4 mph E0.6 kmh E 5.4 mph8.7 kmh 29.80 in1009.1 mb 0.00 in0.0 mm 0.00 in0.0 mm 0.00 in0.0 mm
09:45 PM 60.6°F15.9°C 50.0°F10.0°C 68% Calm Calm -- 29.80 in1009.1 mb 0.00 in0.0 mm 0.00 in0.0 mm 0.00 in0.0 mm
10:00 PM 60.6°F15.9°C 50.4°F10.2°C 69% Calm Calm -- 29.83 in1010.2 mb 0.00 in0.0 mm 0.00 in0.0 mm 0.00 in0.0 mm
10:15 PM 60.8°F16.0°C 50.6°F10.3°C 69% Calm Calm -- 29.83 in1010.2 mb 0.00 in0.0 mm 0.00 in0.0 mm 0.00 in0.0 mm
10:30 PM 61.2°F16.2°C 50.5°F10.3°C 68% 3.9 mph S6.3 kmh S 9.7 mph15.6 kmh 29.83 in1010.2 mb 0.00 in0.0 mm 0.00 in0.0 mm 0.00 in0.0 mm
10:45 PM 61.5°F16.4°C 50.1°F10.1°C 66% 2.5 mph SSE4.0 kmh SSE 9.7 mph15.6 kmh 29.83 in1010.2 mb 0.00 in0.0 mm 0.00 in0.0 mm 0.00 in0.0 mm
11:00 PM 61.3°F16.3°C 49.9°F9.9°C 66% 0.2 mph E0.3 kmh E 3.6 mph5.8 kmh 29.80 in1009.1 mb 0.00 in0.0 mm 0.00 in0.0 mm 0.00 in0.0 mm
11:15 PM 60.8°F16.0°C 49.4°F9.7°C 66% 0.1 mph E0.2 kmh E 2.5 mph4.0 kmh 29.86 in1011.2 mb 0.00 in0.0 mm 0.00 in0.0 mm 0.00 in0.0 mm
11:30 PM 60.1°F15.6°C 49.1°F9.5°C 67% Calm Calm -- 29.83 in1010.2 mb 0.00 in0.0 mm 0.00 in0.0 mm 0.00 in0.0 mm
11:45 PM 59.2°F15.1°C 48.2°F9.0°C 67% Calm Calm -- 29.83 in1010.2 mb 0.00 in0.0 mm 0.00 in0.0 mm 0.00 in0.0 mm